createdAt,value
2022-09-23T13:15:27.606Z,63.37
2022-09-23T13:19:27.948Z,60.05
2022-09-23T13:23:29.794Z,53.93
2022-09-23T13:27:17.622Z,54.10
2022-09-23T13:31:07.731Z,53.66
2022-09-23T13:34:42.481Z,54.60
2022-09-23T13:38:38.264Z,54.92
2022-09-23T13:42:26.800Z,59.89
2022-09-23T13:46:17.968Z,60.31
2022-09-23T13:50:06.333Z,58.65
2022-09-23T13:53:45.142Z,59.00
2022-09-23T13:57:34.368Z,55.66
2022-09-23T14:01:23.107Z,51.94
2022-09-23T14:05:12.693Z,49.10
2022-09-23T14:08:39.266Z,47.88
2022-09-23T14:15:55.499Z,49.44
2022-09-23T14:19:49.297Z,49.52
2022-09-23T14:23:47.372Z,50.54
2022-09-23T14:27:42.832Z,51.75
2022-09-23T14:31:32.859Z,51.69
2022-09-23T14:35:41.551Z,54.65
2022-09-23T14:39:31.853Z,59.86
2022-09-23T14:43:21.747Z,57.39
2022-09-23T14:47:12.389Z,58.23
2022-09-23T14:51:14.659Z,62.79
2022-09-23T14:55:15.963Z,61.88
2022-09-23T14:59:09.490Z,60.57
2022-09-23T15:07:38.763Z,66.91
2022-09-23T15:12:01.416Z,67.37
2022-09-23T15:15:59.528Z,63.46
2022-09-23T15:29:11.863Z,70.16
2022-09-23T15:33:03.341Z,73.05
2022-09-23T15:36:56.109Z,68.83
2022-09-23T15:40:55.957Z,70.51
2022-09-23T15:44:58.646Z,71.97
2022-09-23T15:48:49.635Z,83.42
2022-09-23T15:52:53.485Z,87.35
2022-09-23T16:01:03.348Z,85.07
2022-09-23T16:14:07.317Z,91.40
2022-09-23T16:17:45.791Z,95.54
2022-09-23T16:34:58.143Z,99.08
2022-09-23T16:37:25.354Z,99.69
2022-09-23T16:39:54.570Z,100.00
2022-09-23T16:42:25.890Z,100.00
2022-09-23T16:44:54.215Z,100.00
2022-09-23T16:47:22.505Z,100.00
2022-09-23T16:49:50.179Z,100.00
2022-09-23T16:52:19.240Z,100.00
2022-09-23T16:54:48.240Z,100.00
2022-09-23T16:57:16.240Z,100.00
2022-09-23T17:00:02.513Z,100.00
2022-09-23T17:02:50.800Z,100.00
2022-09-23T17:05:22.566Z,100.00
2022-09-23T17:07:49.931Z,100.00
2022-09-23T17:10:20.155Z,100.00
2022-09-23T17:12:47.656Z,100.00
2022-09-23T17:15:19.194Z,100.00
2022-09-23T17:17:49.129Z,100.00
2022-09-23T17:20:21.075Z,100.00
2022-09-23T17:22:53.853Z,100.00
2022-09-23T17:25:23.868Z,100.00
2022-09-23T17:28:01.109Z,100.00
2022-09-23T17:30:33.102Z,100.00
2022-09-23T17:36:01.690Z,100.00
2022-09-23T17:38:30.681Z,100.00
2022-09-23T17:41:07.686Z,100.00
2022-09-23T17:43:38.176Z,100.00
2022-09-23T17:46:57.249Z,100.00
2022-09-23T17:50:18.328Z,100.00
2022-09-23T17:56:10.179Z,100.00
2022-09-23T17:59:43.732Z,100.00
2022-09-23T18:03:03.417Z,100.00
2022-09-23T18:06:41.278Z,100.00
2022-09-23T18:10:24.998Z,100.00
2022-09-23T18:13:22.763Z,100.00
2022-09-23T18:16:37.554Z,100.00
2022-09-23T18:19:57.152Z,100.00
2022-09-23T18:27:11.644Z,100.00
2022-09-23T18:34:01.920Z,100.00
2022-09-23T18:36:30.181Z,100.00
2022-09-23T18:39:07.194Z,100.00
2022-09-23T18:41:44.982Z,100.00
2022-09-23T18:44:18.652Z,100.00
2022-09-23T18:46:48.570Z,100.00
2022-09-23T18:49:37.077Z,100.00
2022-09-23T18:52:22.932Z,100.00
2022-09-23T18:55:01.235Z,100.00
2022-09-23T18:57:32.466Z,100.00
2022-09-23T19:00:00.427Z,100.00
2022-09-23T19:02:29.741Z,100.00
2022-09-23T19:04:59.777Z,100.00
2022-09-23T19:07:28.702Z,100.00
2022-09-23T19:09:57.654Z,100.00
2022-09-23T19:12:25.761Z,100.00
2022-09-23T19:14:53.194Z,100.00
2022-09-23T19:17:20.202Z,100.00
2022-09-23T19:19:48.480Z,100.00
2022-09-23T19:22:16.719Z,100.00
2022-09-23T19:24:47.639Z,100.00
2022-09-23T19:27:19.901Z,100.00
2022-09-23T19:29:47.424Z,100.00
2022-09-23T19:32:15.299Z,100.00
2022-09-23T19:34:43.779Z,100.00
2022-09-23T19:37:12.124Z,100.00
2022-09-23T19:39:40.630Z,100.00
2022-09-23T19:42:10.137Z,100.00
2022-09-23T19:44:38.691Z,100.00
2022-09-23T19:47:05.903Z,100.00
2022-09-23T19:49:33.542Z,100.00
2022-09-23T19:52:02.401Z,100.00
2022-09-23T19:54:30.865Z,100.00
2022-09-23T19:56:59.168Z,100.00
2022-09-23T19:59:28.595Z,100.00
2022-09-23T20:01:55.401Z,100.00
2022-09-23T20:04:22.368Z,100.00
2022-09-23T20:06:49.905Z,100.00
2022-09-23T20:09:18.875Z,100.00
2022-09-23T20:11:46.734Z,100.00
2022-09-23T20:14:19.641Z,100.00
2022-09-23T20:16:47.611Z,100.00
2022-09-23T20:19:14.622Z,100.00
2022-09-23T20:21:41.613Z,100.00
2022-09-23T20:24:08.836Z,100.00
2022-09-23T20:26:54.651Z,100.00
2022-09-23T20:29:23.739Z,100.00
2022-09-23T20:31:50.503Z,100.00
2022-09-23T20:34:18.930Z,100.00
2022-09-23T20:36:46.296Z,100.00
2022-09-23T20:39:13.507Z,100.00
2022-09-23T20:41:41.282Z,100.00
2022-09-23T20:44:11.775Z,100.00
2022-09-23T20:46:44.022Z,100.00
2022-09-23T20:49:16.019Z,100.00
2022-09-23T20:51:43.474Z,100.00
2022-09-23T20:54:12.607Z,100.00
2022-09-23T20:56:41.698Z,100.00
2022-09-23T20:59:09.960Z,100.00
2022-09-23T21:01:37.180Z,100.00
2022-09-23T21:04:16.450Z,100.00
2022-09-23T21:07:10.056Z,100.00
2022-09-23T21:09:43.796Z,100.00
2022-09-23T21:12:19.261Z,100.00
2022-09-23T21:14:46.671Z,100.00
2022-09-23T21:17:14.157Z,100.00
2022-09-23T21:19:43.255Z,100.00
2022-09-23T21:22:12.580Z,100.00
2022-09-23T21:25:16.058Z,100.00
2022-09-23T21:27:30.158Z,100.00
2022-09-23T21:29:58.879Z,100.00
2022-09-23T21:32:25.942Z,100.00
2022-09-23T21:34:53.315Z,100.00
2022-09-23T21:37:30.125Z,100.00
2022-09-23T21:40:15.434Z,100.00
2022-09-23T21:42:42.321Z,100.00
2022-09-23T21:45:12.345Z,100.00
2022-09-23T21:47:40.627Z,100.00
2022-09-23T21:50:09.832Z,100.00
2022-09-23T21:52:39.806Z,100.00
2022-09-23T21:55:06.913Z,100.00
2022-09-23T21:57:35.273Z,100.00
2022-09-23T22:00:02.367Z,100.00
2022-09-23T22:02:33.755Z,100.00
2022-09-23T22:05:01.004Z,100.00
2022-09-23T22:07:29.330Z,100.00
2022-09-23T22:09:56.646Z,100.00
2022-09-23T22:12:24.757Z,100.00
2022-09-23T22:14:51.588Z,100.00
2022-09-23T22:17:20.741Z,100.00
2022-09-23T22:19:51.515Z,100.00
2022-09-23T22:22:18.490Z,100.00
2022-09-23T22:24:47.533Z,100.00
2022-09-23T22:27:18.553Z,100.00
2022-09-23T22:30:08.324Z,100.00
2022-09-23T22:32:41.921Z,100.00
2022-09-23T22:35:12.038Z,100.00
2022-09-23T22:37:39.976Z,100.00
2022-09-23T22:40:09.868Z,100.00
2022-09-23T22:42:38.002Z,100.00
2022-09-23T22:45:14.674Z,100.00
2022-09-23T22:47:49.646Z,100.00
2022-09-23T22:50:29.782Z,100.00
2022-09-23T22:52:59.395Z,100.00
2022-09-23T22:55:29.855Z,100.00
2022-09-23T22:58:15.405Z,100.00
2022-09-23T23:00:49.258Z,100.00
2022-09-23T23:03:21.129Z,100.00
2022-09-23T23:06:04.250Z,100.00
2022-09-23T23:08:37.525Z,100.00
2022-09-23T23:11:12.426Z,100.00
2022-09-23T23:13:43.494Z,100.00
2022-09-23T23:16:12.353Z,100.00
2022-09-23T23:18:44.708Z,100.00
2022-09-23T23:21:22.626Z,100.00
2022-09-23T23:23:57.787Z,100.00
2022-09-23T23:26:32.414Z,100.00
2022-09-23T23:29:03.818Z,100.00
2022-09-23T23:31:34.386Z,100.00
2022-09-23T23:34:16.193Z,100.00
2022-09-23T23:36:46.296Z,100.00
2022-09-23T23:39:15.582Z,100.00
2022-09-23T23:41:44.680Z,100.00
2022-09-23T23:44:20.791Z,100.00
2022-09-23T23:47:07.452Z,100.00
2022-09-23T23:49:39.004Z,100.00
2022-09-23T23:52:11.233Z,100.00
2022-09-23T23:54:44.762Z,100.00
2022-09-23T23:57:17.906Z,100.00
2022-09-23T23:59:49.473Z,100.00
